createdAt,value
2023-01-29T00:00:52.590Z,99095.50
2023-01-29T00:02:24.312Z,99092.16
2023-01-29T00:03:56.236Z,99087.16
2023-01-29T00:05:28.679Z,99088.09
2023-01-29T00:07:00.361Z,99089.00
2023-01-29T00:08:37.073Z,99084.66
2023-01-29T00:10:09.478Z,99081.19
2023-01-29T00:11:41.314Z,99084.66
2023-01-29T00:13:13.289Z,99092.22
2023-01-29T00:14:44.845Z,99085.56
2023-01-29T00:16:16.522Z,99085.56
2023-01-29T00:17:48.176Z,99095.81
2023-01-29T00:19:19.828Z,99100.66
2023-01-29T00:20:51.679Z,99097.25
2023-01-29T00:22:23.304Z,99091.09
2023-01-29T00:23:55.390Z,99081.00
2023-01-29T00:25:27.038Z,99084.81
2023-01-29T00:26:59.029Z,99076.16
2023-01-29T00:28:31.045Z,99080.41
2023-01-29T00:30:19.311Z,99083.00
2023-01-29T00:31:51.232Z,99079.66
2023-01-29T00:33:22.963Z,99086.47
2023-01-29T00:34:54.507Z,99087.44
2023-01-29T00:36:26.537Z,99091.78
2023-01-29T00:37:58.642Z,99089.97
2023-01-29T00:39:47.465Z,99094.22
2023-01-29T00:41:38.094Z,99094.16
2023-01-29T00:43:28.228Z,99086.41
2023-01-29T00:44:59.933Z,99083.81
2023-01-29T00:46:31.859Z,99089.97
2023-01-29T00:48:04.600Z,99086.53
2023-01-29T00:49:36.156Z,99080.34
2023-01-29T00:51:07.704Z,99081.25
2023-01-29T00:52:41.153Z,99079.66
2023-01-29T00:54:14.120Z,99082.22
2023-01-29T00:55:45.719Z,99079.56
2023-01-29T00:57:17.352Z,99075.31
2023-01-29T00:58:48.939Z,99070.16
2023-01-29T01:00:20.932Z,99078.66
2023-01-29T01:02:11.452Z,99081.78
2023-01-29T01:03:47.011Z,99076.94
2023-01-29T01:05:20.392Z,99080.25
2023-01-29T01:06:52.131Z,99078.59
2023-01-29T01:08:42.029Z,99083.00
2023-01-29T01:10:21.382Z,99083.06
2023-01-29T01:11:53.225Z,99087.75
2023-01-29T01:13:24.888Z,99085.66
2023-01-29T01:14:56.584Z,99077.06
2023-01-29T01:16:28.401Z,99079.50
2023-01-29T01:18:01.895Z,99073.59
2023-01-29T01:19:33.916Z,99079.13
2023-01-29T01:21:06.029Z,99073.81
2023-01-29T01:22:37.603Z,99073.59
2023-01-29T01:24:09.418Z,99080.56
2023-01-29T01:25:41.338Z,99084.03
2023-01-29T01:27:13.953Z,99079.19
2023-01-29T01:28:45.572Z,99086.03
2023-01-29T01:30:17.635Z,99081.69
2023-01-29T01:31:49.595Z,99078.28
2023-01-29T01:33:22.246Z,99081.16
2023-01-29T01:34:53.964Z,99073.38
2023-01-29T01:36:25.601Z,99081.03
2023-01-29T01:37:57.258Z,99075.88
2023-01-29T01:39:28.830Z,99074.81
2023-01-29T01:41:01.227Z,99075.78
2023-01-29T01:42:32.769Z,99068.81
2023-01-29T01:44:06.371Z,99065.47
2023-01-29T01:45:38.059Z,99063.72
2023-01-29T01:47:09.756Z,99063.56
2023-01-29T01:48:41.798Z,99065.25
2023-01-29T01:50:22.671Z,99061.91
2023-01-29T01:51:54.991Z,99065.41
2023-01-29T01:53:30.728Z,99063.78
2023-01-29T01:55:03.962Z,99058.72
2023-01-29T01:56:41.460Z,99067.13
2023-01-29T01:58:20.402Z,99056.88
2023-01-29T02:00:00.134Z,99050.81
2023-01-29T02:01:31.916Z,99051.53
2023-01-29T02:03:23.642Z,99059.25
2023-01-29T02:05:14.331Z,99050.00
2023-01-29T02:07:05.027Z,99051.72
2023-01-29T02:09:05.893Z,99051.00
2023-01-29T02:10:44.668Z,99059.56
2023-01-29T02:12:17.228Z,99063.88
2023-01-29T02:13:53.579Z,99057.81
2023-01-29T02:15:30.231Z,99057.72
2023-01-29T02:17:01.995Z,99063.06
2023-01-29T02:18:38.082Z,99066.28
2023-01-29T02:20:25.760Z,99068.94
2023-01-29T02:22:36.832Z,99065.63
2023-01-29T02:24:29.599Z,99062.53
2023-01-29T02:26:23.327Z,99074.09
2023-01-29T02:28:25.431Z,99077.50
2023-01-29T02:30:03.424Z,99069.03
2023-01-29T02:31:48.302Z,99078.59
2023-01-29T02:33:48.126Z,99079.50
2023-01-29T02:35:25.925Z,99080.25
2023-01-29T02:37:03.494Z,99076.00
2023-01-29T02:38:47.591Z,99075.72
2023-01-29T02:40:46.937Z,99069.66
2023-01-29T02:42:53.064Z,99077.31
2023-01-29T02:45:19.870Z,99078.88
2023-01-29T02:47:03.940Z,99082.47
2023-01-29T02:49:22.487Z,99087.00
2023-01-29T02:51:06.675Z,99084.06
2023-01-29T02:52:50.791Z,99087.97
2023-01-29T02:54:34.932Z,99082.59
2023-01-29T02:56:21.719Z,99082.78
2023-01-29T02:57:59.873Z,99082.84
2023-01-29T02:59:41.045Z,99078.59
2023-01-29T03:01:22.220Z,99081.16
2023-01-29T03:03:00.944Z,99078.66
2023-01-29T03:04:38.655Z,99086.47
2023-01-29T03:06:22.287Z,99085.72
2023-01-29T03:08:01.880Z,99084.00
2023-01-29T03:09:46.109Z,99077.16
2023-01-29T03:11:18.392Z,99082.22
2023-01-29T03:13:14.770Z,99084.72
2023-01-29T03:15:09.508Z,99079.06
2023-01-29T03:16:51.949Z,99080.25
2023-01-29T03:18:27.846Z,99074.34
2023-01-29T03:20:08.089Z,99074.19
2023-01-29T03:21:51.163Z,99069.94
2023-01-29T03:23:46.885Z,99070.78
2023-01-29T03:25:39.777Z,99067.06
2023-01-29T03:27:33.501Z,99063.72
2023-01-29T03:29:25.519Z,99063.72
2023-01-29T03:31:22.983Z,99064.63
2023-01-29T03:33:06.548Z,99067.91
2023-01-29T03:34:46.673Z,99068.16
2023-01-29T03:36:45.361Z,99069.13
2023-01-29T03:38:17.883Z,99071.63
2023-01-29T03:39:49.659Z,99063.88
2023-01-29T03:41:34.814Z,99070.84
2023-01-29T03:43:35.488Z,99075.19
2023-01-29T03:45:10.518Z,99076.16
2023-01-29T03:47:13.789Z,99077.91
2023-01-29T03:49:08.393Z,99074.47
2023-01-29T03:51:04.566Z,99075.31
2023-01-29T03:52:52.164Z,99066.75
2023-01-29T03:54:36.526Z,99075.09
2023-01-29T03:56:21.115Z,99069.25
2023-01-29T03:58:29.585Z,99066.84
2023-01-29T04:00:14.480Z,99065.69
2023-01-29T04:02:02.935Z,99068.28
2023-01-29T04:03:39.229Z,99069.19
2023-01-29T04:05:22.673Z,99080.56
2023-01-29T04:07:15.254Z,99072.50
2023-01-29T04:08:47.411Z,99077.53
2023-01-29T04:10:25.027Z,99073.34
2023-01-29T04:12:09.648Z,99076.00
2023-01-29T04:13:45.112Z,99074.56
2023-01-29T04:15:20.345Z,99074.50
2023-01-29T04:16:57.765Z,99073.50
2023-01-29T04:18:48.910Z,99071.59
2023-01-29T04:20:21.600Z,99068.25
2023-01-29T04:22:02.473Z,99073.34
2023-01-29T04:23:34.503Z,99068.34
2023-01-29T04:25:16.110Z,99073.41
2023-01-29T04:27:06.462Z,99070.84
2023-01-29T04:28:58.729Z,99076.69
2023-01-29T04:30:33.584Z,99075.03
2023-01-29T04:32:38.734Z,99075.63
2023-01-29T04:34:18.000Z,99074.13
2023-01-29T04:36:07.232Z,99074.06
2023-01-29T04:37:56.566Z,99074.88
2023-01-29T04:39:46.278Z,99073.75
2023-01-29T04:41:42.620Z,99079.03
2023-01-29T04:43:26.299Z,99078.25
2023-01-29T04:45:10.158Z,99079.28
2023-01-29T04:46:51.809Z,99073.34
2023-01-29T04:48:38.169Z,99073.22
2023-01-29T04:50:19.139Z,99078.25
2023-01-29T04:52:21.434Z,99070.84
2023-01-29T04:54:11.007Z,99070.78
2023-01-29T04:55:54.773Z,99071.53
2023-01-29T04:57:47.390Z,99068.91
2023-01-29T04:59:30.795Z,99069.03
2023-01-29T05:01:06.660Z,99067.22
2023-01-29T05:02:41.303Z,99067.22
2023-01-29T05:04:16.259Z,99067.16
2023-01-29T05:05:50.092Z,99061.91
2023-01-29T05:07:23.368Z,99060.31
2023-01-29T05:08:57.451Z,99064.47
2023-01-29T05:10:29.327Z,99066.91
2023-01-29T05:12:02.594Z,99069.63
2023-01-29T05:13:39.661Z,99077.47
2023-01-29T05:15:19.312Z,99071.53
2023-01-29T05:16:53.752Z,99070.00
2023-01-29T05:18:25.421Z,99069.03
2023-01-29T05:19:57.271Z,99068.97
2023-01-29T05:21:29.024Z,99074.94
2023-01-29T05:23:00.727Z,99070.63
2023-01-29T05:24:32.369Z,99069.81
2023-01-29T05:26:04.918Z,99074.78
2023-01-29T05:27:55.587Z,99071.38
2023-01-29T05:29:27.188Z,99067.97
2023-01-29T05:30:58.965Z,99065.53
2023-01-29T05:32:30.642Z,99063.75
2023-01-29T05:34:02.197Z,99065.31
2023-01-29T05:35:33.968Z,99067.16
2023-01-29T05:37:05.661Z,99074.78
2023-01-29T05:38:37.263Z,99076.53
2023-01-29T05:40:09.664Z,99069.63
2023-01-29T05:41:41.618Z,99067.06
2023-01-29T05:43:17.410Z,99064.56
2023-01-29T05:44:48.936Z,99063.44
2023-01-29T05:46:20.669Z,99063.44
2023-01-29T05:47:59.952Z,99070.16
2023-01-29T05:49:31.521Z,99066.69
2023-01-29T05:51:04.875Z,99069.50
2023-01-29T05:52:36.525Z,99072.91
2023-01-29T05:54:08.051Z,99068.78
2023-01-29T05:55:39.659Z,99070.31
2023-01-29T05:57:11.244Z,99070.53
2023-01-29T05:58:42.838Z,99068.91
2023-01-29T06:00:15.257Z,99068.72
2023-01-29T06:01:47.163Z,99072.13
2023-01-29T06:03:18.846Z,99073.88
2023-01-29T06:04:53.274Z,99077.75
2023-01-29T06:06:24.891Z,99070.41
2023-01-29T06:07:56.495Z,99056.75
2023-01-29T06:09:28.076Z,99057.81
2023-01-29T06:10:59.711Z,99046.72
2023-01-29T06:12:31.512Z,99043.63
2023-01-29T06:14:03.181Z,99043.00
2023-01-29T06:15:34.766Z,99042.34
2023-01-29T06:17:06.457Z,99040.69
2023-01-29T06:18:39.395Z,99038.78
2023-01-29T06:20:11.488Z,99035.44
2023-01-29T06:21:43.088Z,99049.31
2023-01-29T06:23:14.686Z,99037.34
2023-01-29T06:24:46.217Z,99034.75
2023-01-29T06:26:17.743Z,99035.81
2023-01-29T06:27:52.159Z,99036.44
2023-01-29T06:29:23.801Z,99034.53
2023-01-29T06:31:11.524Z,99034.25
2023-01-29T06:32:47.993Z,99048.50
2023-01-29T06:34:19.575Z,99042.50
2023-01-29T06:35:59.596Z,99048.03
2023-01-29T06:37:31.296Z,99051.06
2023-01-29T06:39:03.965Z,99055.47
2023-01-29T06:40:35.592Z,99062.56
2023-01-29T06:42:07.152Z,99057.22
2023-01-29T06:43:39.717Z,99060.63
2023-01-29T06:45:11.592Z,99068.34
2023-01-29T06:46:43.223Z,99062.28
2023-01-29T06:48:14.780Z,99067.22
2023-01-29T06:49:46.408Z,99062.06
2023-01-29T06:51:18.121Z,99066.44
2023-01-29T06:52:49.688Z,99059.63
2023-01-29T06:54:21.291Z,99061.38
2023-01-29T06:55:53.175Z,99062.13
2023-01-29T06:57:24.826Z,99069.94
2023-01-29T06:58:56.505Z,99077.97
2023-01-29T07:00:30.006Z,99082.97
2023-01-29T07:02:03.635Z,99083.16
2023-01-29T07:03:35.257Z,99074.59
2023-01-29T07:05:07.203Z,99068.25
2023-01-29T07:06:38.919Z,99075.03
2023-01-29T07:08:10.499Z,99069.25
2023-01-29T07:09:43.136Z,99073.41
2023-01-29T07:11:14.758Z,99072.59
2023-01-29T07:12:46.352Z,99084.63
2023-01-29T07:14:17.972Z,99083.13
2023-01-29T07:15:49.513Z,99086.31
2023-01-29T07:17:21.309Z,99090.84
2023-01-29T07:18:52.835Z,99095.09
2023-01-29T07:20:26.384Z,99086.97
2023-01-29T07:21:58.054Z,99097.44
2023-01-29T07:23:29.591Z,99097.16
2023-01-29T07:25:01.145Z,99088.41
2023-01-29T07:26:32.664Z,99092.66
2023-01-29T07:28:07.404Z,99089.25
2023-01-29T07:29:39.009Z,99097.50
2023-01-29T07:31:14.178Z,99094.19
2023-01-29T07:32:45.885Z,99100.19
2023-01-29T07:34:17.680Z,99097.69
2023-01-29T07:35:49.241Z,99098.34
2023-01-29T07:37:20.842Z,99101.03
2023-01-29T07:38:52.677Z,99092.53
2023-01-29T07:40:24.324Z,99090.94
2023-01-29T07:41:55.896Z,99092.38
2023-01-29T07:43:27.901Z,99089.66
2023-01-29T07:44:59.493Z,99090.19
2023-01-29T07:46:31.195Z,99089.78
2023-01-29T07:48:05.045Z,99090.72
2023-01-29T07:49:36.643Z,99094.81
2023-01-29T07:51:08.310Z,99103.38
2023-01-29T07:52:39.889Z,99113.44
2023-01-29T07:54:11.483Z,99115.06
2023-01-29T07:55:45.787Z,99112.47
2023-01-29T07:57:17.407Z,99109.59
2023-01-29T07:58:49.063Z,99117.19
2023-01-29T08:00:21.162Z,99105.75
2023-01-29T08:01:52.825Z,99111.56
2023-01-29T08:03:24.574Z,99120.00
2023-01-29T08:04:56.246Z,99118.19
2023-01-29T08:06:27.895Z,99119.94
2023-01-29T08:08:06.587Z,99119.16
2023-01-29T08:09:38.507Z,99122.72
2023-01-29T08:11:10.259Z,99126.13
2023-01-29T08:12:41.841Z,99121.88
2023-01-29T08:14:13.426Z,99132.97
2023-01-29T08:15:46.058Z,99127.03
2023-01-29T08:17:17.705Z,99121.59
2023-01-29T08:18:49.316Z,99126.59
2023-01-29T08:20:22.009Z,99126.38
2023-01-29T08:21:53.638Z,99128.88
2023-01-29T08:23:25.218Z,99121.88
2023-01-29T08:25:06.334Z,99125.75
2023-01-29T08:26:39.711Z,99129.78
2023-01-29T08:28:12.414Z,99128.66
2023-01-29T08:29:44.317Z,99129.50
2023-01-29T08:31:17.622Z,99122.13
2023-01-29T08:32:49.361Z,99121.97
2023-01-29T08:34:21.008Z,99122.97
2023-01-29T08:35:52.596Z,99116.22
2023-01-29T08:37:24.468Z,99118.94
2023-01-29T08:38:56.195Z,99118.56
2023-01-29T08:40:30.220Z,99120.81
2023-01-29T08:42:01.917Z,99121.28
2023-01-29T08:43:37.093Z,99122.59
2023-01-29T08:45:09.371Z,99131.69
2023-01-29T08:46:41.266Z,99132.94
2023-01-29T08:48:13.185Z,99132.50
2023-01-29T08:49:44.804Z,99133.84
2023-01-29T08:51:16.476Z,99131.97
2023-01-29T08:52:48.070Z,99135.13
2023-01-29T08:54:19.682Z,99141.81
2023-01-29T08:55:52.075Z,99144.38
2023-01-29T08:57:23.695Z,99137.53
2023-01-29T08:58:55.327Z,99144.50
2023-01-29T09:00:26.964Z,99136.16
2023-01-29T09:01:58.552Z,99139.03
2023-01-29T09:03:30.203Z,99146.63
2023-01-29T09:05:01.885Z,99145.38
2023-01-29T09:06:33.576Z,99146.53
2023-01-29T09:08:05.956Z,99145.97
2023-01-29T09:09:38.356Z,99149.19
2023-01-29T09:11:10.613Z,99142.22
2023-01-29T09:12:42.257Z,99145.66
2023-01-29T09:14:14.711Z,99148.97
2023-01-29T09:15:46.302Z,99150.31
2023-01-29T09:17:18.002Z,99142.13
2023-01-29T09:18:49.644Z,99151.41
2023-01-29T09:20:21.507Z,99153.72
2023-01-29T09:21:53.164Z,99154.66
2023-01-29T09:23:24.967Z,99153.38
2023-01-29T09:24:56.633Z,99152.25
2023-01-29T09:26:28.405Z,99158.75
2023-01-29T09:28:00.132Z,99155.19
2023-01-29T09:29:33.535Z,99152.63
2023-01-29T09:31:06.550Z,99158.16
2023-01-29T09:32:54.674Z,99161.38
2023-01-29T09:34:26.503Z,99160.22
2023-01-29T09:35:58.357Z,99160.88
2023-01-29T09:37:29.970Z,99156.28
2023-01-29T09:39:01.579Z,99156.00
2023-01-29T09:40:36.011Z,99162.66
2023-01-29T09:42:16.559Z,99158.31
2023-01-29T09:43:51.482Z,99153.41
2023-01-29T09:45:28.670Z,99156.28
2023-01-29T09:47:05.145Z,99155.28
2023-01-29T09:48:37.230Z,99154.94
2023-01-29T09:50:15.728Z,99159.81
2023-01-29T09:51:52.564Z,99156.31
2023-01-29T09:53:30.475Z,99151.91
2023-01-29T09:55:14.712Z,99154.25
2023-01-29T09:56:47.967Z,99150.53
2023-01-29T09:58:30.420Z,99153.19
2023-01-29T10:00:02.068Z,99153.09
2023-01-29T10:01:49.433Z,99154.75
2023-01-29T10:03:29.932Z,99153.09
2023-01-29T10:05:23.320Z,99147.41
2023-01-29T10:07:00.592Z,99147.50
2023-01-29T10:08:57.070Z,99136.94
2023-01-29T10:10:39.251Z,99147.63
2023-01-29T10:12:49.264Z,99137.66
2023-01-29T10:14:23.879Z,99135.00
2023-01-29T10:16:10.809Z,99132.59
2023-01-29T10:18:04.137Z,99122.81
2023-01-29T10:19:44.641Z,99126.75
2023-01-29T10:21:34.250Z,99117.03
2023-01-29T10:23:15.100Z,99114.41
2023-01-29T10:24:52.732Z,99107.25
2023-01-29T10:26:27.978Z,99102.84
2023-01-29T10:28:00.956Z,99091.16
2023-01-29T10:29:34.274Z,99087.63
2023-01-29T10:31:25.184Z,99087.00
2023-01-29T10:33:02.366Z,99093.09
2023-01-29T10:34:41.139Z,99086.00
2023-01-29T10:36:25.213Z,99082.41
2023-01-29T10:38:02.345Z,99081.44
2023-01-29T10:39:34.530Z,99086.56
2023-01-29T10:41:12.010Z,99084.03
2023-01-29T10:42:50.041Z,99087.19
2023-01-29T10:44:34.619Z,99087.94
2023-01-29T10:46:20.843Z,99079.72
2023-01-29T10:48:35.186Z,99076.16
2023-01-29T10:50:19.212Z,99073.75
2023-01-29T10:51:58.511Z,99087.56
2023-01-29T10:53:54.259Z,99090.41
2023-01-29T10:55:35.544Z,99096.63
2023-01-29T10:57:26.056Z,99095.50
2023-01-29T10:59:05.434Z,99092.31
2023-01-29T11:00:42.006Z,99095.75
2023-01-29T11:02:21.211Z,99088.72
2023-01-29T11:04:02.317Z,99086.53
2023-01-29T11:05:44.393Z,99074.41
2023-01-29T11:07:18.608Z,99069.91
2023-01-29T11:08:53.332Z,99068.50
2023-01-29T11:10:25.811Z,99066.56
2023-01-29T11:12:05.948Z,99074.41
2023-01-29T11:14:00.533Z,99074.06
2023-01-29T11:15:36.604Z,99066.88
2023-01-29T11:17:16.329Z,99066.13
2023-01-29T11:19:01.722Z,99064.28
2023-01-29T11:20:34.132Z,99059.81
2023-01-29T11:22:09.402Z,99055.50
2023-01-29T11:23:41.064Z,99062.16
2023-01-29T11:25:20.255Z,99064.38
2023-01-29T11:26:54.653Z,99060.28
2023-01-29T11:28:36.416Z,99065.72
2023-01-29T11:30:16.567Z,99069.81
2023-01-29T11:31:48.737Z,99068.66
2023-01-29T11:33:22.086Z,99073.09
2023-01-29T11:35:15.934Z,99064.34
2023-01-29T11:36:57.456Z,99069.78
2023-01-29T11:38:29.699Z,99061.59
2023-01-29T11:40:01.362Z,99068.94
2023-01-29T11:41:43.835Z,99064.59
2023-01-29T11:43:18.078Z,99056.81
2023-01-29T11:44:50.248Z,99055.38
2023-01-29T11:46:21.939Z,99053.66
2023-01-29T11:47:56.622Z,99045.06
2023-01-29T11:49:33.515Z,99054.56
2023-01-29T11:51:06.325Z,99052.03
2023-01-29T11:52:42.184Z,99054.44
2023-01-29T11:54:19.723Z,99056.72
2023-01-29T11:55:51.833Z,99054.47
2023-01-29T11:57:26.304Z,99051.13
2023-01-29T11:58:58.997Z,99045.50
2023-01-29T12:00:33.585Z,99038.22
2023-01-29T12:02:28.218Z,99035.94
2023-01-29T12:04:00.648Z,99033.13
2023-01-29T12:05:32.767Z,99032.50
2023-01-29T12:07:11.607Z,99024.59
2023-01-29T12:08:43.325Z,99031.34
2023-01-29T12:10:36.082Z,99031.06
2023-01-29T12:12:35.317Z,99024.72
2023-01-29T12:14:29.984Z,99031.25
2023-01-29T12:16:17.196Z,99027.31
2023-01-29T12:17:57.359Z,99030.34
2023-01-29T12:19:43.769Z,99024.59
2023-01-29T12:21:35.826Z,99026.22
2023-01-29T12:23:27.299Z,99018.06
2023-01-29T12:25:02.017Z,99020.22
2023-01-29T12:26:39.405Z,99017.72
2023-01-29T12:28:29.891Z,99014.94
2023-01-29T12:30:33.221Z,99004.63
2023-01-29T12:32:14.659Z,99004.81
2023-01-29T12:34:05.020Z,98995.72
2023-01-29T12:35:44.060Z,98988.78
2023-01-29T12:37:54.301Z,98983.06
2023-01-29T12:39:26.395Z,98976.41
2023-01-29T12:41:09.781Z,98970.88
2023-01-29T12:42:55.517Z,98969.31
2023-01-29T12:44:37.462Z,98958.53
2023-01-29T12:46:21.924Z,98953.28
2023-01-29T12:48:01.572Z,98951.31
2023-01-29T12:49:38.379Z,98948.44
2023-01-29T12:51:15.128Z,98941.75
2023-01-29T12:52:58.547Z,98933.34
2023-01-29T12:54:53.334Z,98931.81
2023-01-29T12:56:39.783Z,98931.00
2023-01-29T12:58:25.348Z,98916.81
2023-01-29T13:00:06.575Z,98914.78
2023-01-29T13:01:46.859Z,98910.44
2023-01-29T13:03:44.052Z,98907.63
2023-01-29T13:05:36.800Z,98902.31
2023-01-29T13:07:14.919Z,98896.41
2023-01-29T13:08:58.204Z,98893.09
2023-01-29T13:10:36.989Z,98891.78
2023-01-29T13:12:15.963Z,98884.66
2023-01-29T13:14:16.889Z,98887.44
2023-01-29T13:15:49.002Z,98881.41
2023-01-29T13:17:31.136Z,98878.84
2023-01-29T13:19:04.488Z,98875.00
2023-01-29T13:20:38.818Z,98877.63
2023-01-29T13:22:26.342Z,98871.66
2023-01-29T13:24:03.237Z,98875.41
2023-01-29T13:25:34.911Z,98880.28
2023-01-29T13:27:06.916Z,98887.75
2023-01-29T13:28:39.687Z,98883.97
2023-01-29T13:30:33.430Z,98883.63
2023-01-29T13:32:05.746Z,98878.97
2023-01-29T13:33:40.762Z,98886.16
2023-01-29T13:35:15.084Z,98879.94
2023-01-29T13:36:59.574Z,98880.34
2023-01-29T13:38:35.396Z,98874.78
2023-01-29T13:40:08.623Z,98873.97
2023-01-29T13:41:42.745Z,98875.72
2023-01-29T13:43:21.719Z,98871.25
2023-01-29T13:44:57.421Z,98880.69
2023-01-29T13:46:30.030Z,98872.03
2023-01-29T13:48:18.440Z,98875.81
2023-01-29T13:50:17.888Z,98872.78
2023-01-29T13:51:49.877Z,98870.78
2023-01-29T13:53:29.121Z,98878.72
2023-01-29T13:55:22.386Z,98874.53
2023-01-29T13:56:58.548Z,98876.28
2023-01-29T13:58:33.159Z,98879.78
2023-01-29T14:00:06.291Z,98877.53
2023-01-29T14:02:05.074Z,98885.41
2023-01-29T14:04:03.720Z,98882.25
2023-01-29T14:05:58.227Z,98893.78
2023-01-29T14:07:49.979Z,98894.34
2023-01-29T14:09:36.750Z,98887.50
2023-01-29T14:11:17.377Z,98897.63
2023-01-29T14:13:23.830Z,98894.94
2023-01-29T14:14:55.526Z,98898.50
2023-01-29T14:16:35.190Z,98900.25
2023-01-29T14:18:25.201Z,98890.72
2023-01-29T14:20:04.799Z,98901.53
2023-01-29T14:21:37.799Z,98894.94
2023-01-29T14:23:28.563Z,98905.78
2023-01-29T14:25:05.038Z,98903.47
2023-01-29T14:26:44.004Z,98900.38
2023-01-29T14:28:23.294Z,98905.38
2023-01-29T14:30:06.973Z,98904.28
2023-01-29T14:31:43.316Z,98898.63
2023-01-29T14:33:31.833Z,98900.38
2023-01-29T14:35:17.842Z,98904.16
2023-01-29T14:36:55.580Z,98910.34
2023-01-29T14:38:29.689Z,98902.88
2023-01-29T14:40:16.612Z,98901.06
2023-01-29T14:41:50.808Z,98899.03
2023-01-29T14:43:22.606Z,98906.59
2023-01-29T14:44:54.174Z,98912.22
2023-01-29T14:46:35.320Z,98911.56
2023-01-29T14:48:20.045Z,98913.41
2023-01-29T14:49:55.565Z,98902.97
2023-01-29T14:51:30.952Z,98905.56
2023-01-29T14:53:11.609Z,98907.22
2023-01-29T14:54:43.483Z,98905.13
2023-01-29T14:56:22.675Z,98900.34
2023-01-29T14:57:58.167Z,98903.56
2023-01-29T14:59:37.453Z,98906.28
2023-01-29T15:01:27.426Z,98902.56
2023-01-29T15:03:02.195Z,98904.03
2023-01-29T15:04:44.114Z,98903.88
2023-01-29T15:06:20.257Z,98904.34
2023-01-29T15:07:54.975Z,98912.19
2023-01-29T15:09:55.505Z,98910.66
2023-01-29T15:11:49.866Z,98909.34
2023-01-29T15:13:27.774Z,98909.91
2023-01-29T15:15:16.126Z,98906.22
2023-01-29T15:16:50.965Z,98906.31
2023-01-29T15:18:34.687Z,98902.16
2023-01-29T15:20:27.503Z,98897.53
2023-01-29T15:22:17.161Z,98891.72
2023-01-29T15:24:04.325Z,98888.22
2023-01-29T15:25:47.007Z,98888.84
2023-01-29T15:27:20.360Z,98898.06
2023-01-29T15:29:04.116Z,98899.09
2023-01-29T15:30:37.769Z,98899.00
2023-01-29T15:32:16.979Z,98900.25
2023-01-29T15:33:51.883Z,98898.31
2023-01-29T15:35:34.346Z,98899.06
2023-01-29T15:37:06.029Z,98907.53
2023-01-29T15:38:37.748Z,98901.28
2023-01-29T15:40:17.181Z,98901.09
2023-01-29T15:41:53.655Z,98899.25
2023-01-29T15:43:29.180Z,98897.88
2023-01-29T15:45:00.905Z,98899.09
2023-01-29T15:46:39.644Z,98893.16
2023-01-29T15:48:18.108Z,98894.75
2023-01-29T15:49:49.887Z,98894.44
2023-01-29T15:51:25.209Z,98886.22
2023-01-29T15:53:00.361Z,98883.16
2023-01-29T15:54:35.033Z,98885.03
2023-01-29T15:56:11.851Z,98882.38
2023-01-29T15:57:45.090Z,98882.75
2023-01-29T15:59:24.880Z,98888.78
2023-01-29T16:00:59.026Z,98887.31
2023-01-29T16:02:43.054Z,98892.63
2023-01-29T16:04:28.800Z,98890.16
2023-01-29T16:06:01.655Z,98895.84
2023-01-29T16:07:34.783Z,98886.09
2023-01-29T16:09:08.035Z,98889.66
2023-01-29T16:10:42.336Z,98897.75
2023-01-29T16:12:14.453Z,98895.28
2023-01-29T16:13:49.191Z,98897.66
2023-01-29T16:15:30.010Z,98897.59
2023-01-29T16:17:22.662Z,98890.13
2023-01-29T16:19:00.364Z,98892.00
2023-01-29T16:20:37.860Z,98889.16
2023-01-29T16:22:09.515Z,98879.53
2023-01-29T16:23:49.640Z,98880.69
2023-01-29T16:25:21.517Z,98878.19
2023-01-29T16:26:59.215Z,98877.28
2023-01-29T16:28:31.018Z,98883.50
2023-01-29T16:30:05.145Z,98890.44
2023-01-29T16:31:38.561Z,98882.50
2023-01-29T16:33:17.240Z,98880.69
2023-01-29T16:34:49.816Z,98880.03
2023-01-29T16:36:27.806Z,98880.44
2023-01-29T16:38:06.670Z,98887.00
2023-01-29T16:39:45.783Z,98886.31
2023-01-29T16:41:26.798Z,98885.41
2023-01-29T16:43:17.052Z,98890.50
2023-01-29T16:44:51.523Z,98891.66
2023-01-29T16:46:33.608Z,98895.91
2023-01-29T16:48:27.728Z,98894.03
2023-01-29T16:50:00.907Z,98893.72
2023-01-29T16:51:39.068Z,98902.75
2023-01-29T16:53:28.506Z,98903.16
2023-01-29T16:55:28.250Z,98907.16
2023-01-29T16:57:02.028Z,98901.75
2023-01-29T16:58:34.539Z,98906.38
2023-01-29T17:00:21.377Z,98909.25
2023-01-29T17:01:55.622Z,98904.91
2023-01-29T17:03:30.359Z,98902.19
2023-01-29T17:05:08.335Z,98894.09
2023-01-29T17:06:47.679Z,98907.09
2023-01-29T17:08:27.245Z,98903.44
2023-01-29T17:10:02.355Z,98902.38
2023-01-29T17:11:38.666Z,98909.59
2023-01-29T17:13:21.943Z,98909.06
2023-01-29T17:14:59.589Z,98912.84
2023-01-29T17:16:34.315Z,98913.75
2023-01-29T17:18:19.159Z,98916.53
2023-01-29T17:19:50.750Z,98906.69
2023-01-29T17:21:22.719Z,98911.47
2023-01-29T17:22:54.916Z,98910.91
2023-01-29T17:24:26.668Z,98909.88
2023-01-29T17:25:59.614Z,98908.44
2023-01-29T17:27:31.364Z,98913.97
2023-01-29T17:29:03.013Z,98912.34
2023-01-29T17:30:37.200Z,98919.53
2023-01-29T17:32:09.860Z,98912.97
2023-01-29T17:33:43.289Z,98910.44
2023-01-29T17:35:17.060Z,98901.75
2023-01-29T17:36:48.944Z,98910.38
2023-01-29T17:38:26.481Z,98910.59
2023-01-29T17:39:59.589Z,98911.50
2023-01-29T17:41:31.974Z,98912.47
2023-01-29T17:43:03.679Z,98913.31
2023-01-29T17:44:35.331Z,98910.88
2023-01-29T17:46:11.925Z,98924.66
2023-01-29T17:47:43.572Z,98916.25
2023-01-29T17:49:24.538Z,98919.66
2023-01-29T17:51:00.249Z,98917.38
2023-01-29T17:52:32.276Z,98921.81
2023-01-29T17:54:03.922Z,98916.63
2023-01-29T17:55:36.190Z,98921.69
2023-01-29T17:57:10.749Z,98914.03
2023-01-29T17:58:42.734Z,98911.81
2023-01-29T18:00:23.407Z,98923.31
2023-01-29T18:01:55.160Z,98915.81
2023-01-29T18:03:27.457Z,98922.81
2023-01-29T18:04:59.096Z,98916.91
2023-01-29T18:06:31.152Z,98917.59
2023-01-29T18:08:03.049Z,98916.84
2023-01-29T18:09:34.718Z,98916.06
2023-01-29T18:11:06.745Z,98917.97
2023-01-29T18:12:38.415Z,98917.31
2023-01-29T18:14:14.332Z,98915.66
2023-01-29T18:15:46.062Z,98926.16
2023-01-29T18:17:22.280Z,98921.31
2023-01-29T18:18:53.886Z,98919.66
2023-01-29T18:20:25.748Z,98920.94
2023-01-29T18:21:57.533Z,98927.41
2023-01-29T18:23:31.231Z,98931.03
2023-01-29T18:25:03.167Z,98928.72
2023-01-29T18:26:36.091Z,98927.41
2023-01-29T18:28:10.006Z,98923.34
2023-01-29T18:29:41.806Z,98929.16
2023-01-29T18:31:14.416Z,98929.38
2023-01-29T18:32:47.601Z,98926.91
2023-01-29T18:34:19.346Z,98928.16
2023-01-29T18:35:51.361Z,98921.28
2023-01-29T18:37:23.038Z,98929.00
2023-01-29T18:38:54.771Z,98929.34
2023-01-29T18:40:27.110Z,98919.00
2023-01-29T18:41:58.859Z,98922.81
2023-01-29T18:43:30.561Z,98918.72
2023-01-29T18:45:03.797Z,98916.41
2023-01-29T18:46:35.348Z,98921.50
2023-01-29T18:48:07.145Z,98916.22
2023-01-29T18:49:39.275Z,98914.06
2023-01-29T18:51:10.971Z,98907.53
2023-01-29T18:52:44.584Z,98905.44
2023-01-29T18:54:18.213Z,98904.91
2023-01-29T18:56:16.019Z,98899.25
2023-01-29T18:58:34.221Z,98895.22
2023-01-29T18:59:39.555Z,98904.47
2023-01-29T19:01:12.044Z,98909.81
2023-01-29T19:02:45.182Z,98905.66
2023-01-29T19:04:16.961Z,98905.44
2023-01-29T19:05:48.785Z,98902.31
2023-01-29T19:07:20.421Z,98892.03
2023-01-29T19:08:52.036Z,98903.56
2023-01-29T19:10:23.751Z,98894.13